Impacts METAR Board
IDs:

KLAX - Los Angeles Intl, CA, US

Updated at: 1100 UTC 09 Jul 2020
Potential Impact None Slight Moderate High
Time 08/23Z 09/00Z 09/01Z 09/02Z 09/03Z 09/04Z 09/05Z 09/06Z 09/07Z 09/08Z 09/09Z 09/10Z 09/11Z
Temp71 72 70 69 67 66 65 64 64 64 64 65 64
Dewpt59 60 61 61 60 57 58 58 58 59 58 59 58
Altim29.86 29.85 29.85 29.85 29.85 29.86 29.87 29.88 29.89 29.89 29.89 29.89 29.88
VIS10 10 10 10 10 10 10 10 10 10 10 10 10
CIG-- -- -- -- -- -- -- -- -- -- -- 11 12
CoverCLRFEWFEWFEWFEWCLRCLRFEWFEWFEWFEWBKNOVC
FltCatVFRVFRVFRVFRVFRVFRVFRVFRVFRVFRVFRMVFRMVFR
WX--------------------------
WDir24026027027026027026025026027025000
WSpd9 10 11 11 9 8 7 5 5 5 4 0 3
WGst-- -- -- -- -- -- -- -- -- -- -- -- --
Raw hourly METARs
KLAX 082253Z 24009KT 10SM CLR 22/15 A2986 RMK AO2 SLP110 T02170150
KLAX 082353Z 26010KT 10SM FEW015 22/16 A2985 RMK AO2 SLP107 T02220156 10244 20217 56011
KLAX 090053Z 27011KT 10SM FEW011 21/16 A2985 RMK AO2 SLP107 T02110161
KLAX 090153Z 27011KT 10SM FEW011 21/16 A2985 RMK AO2 SLP108 T02060161
KLAX 090253Z 26009KT 10SM FEW012 19/16 A2985 RMK AO2 SLP107 T01940156 50000
KLAX 090353Z 27008KT 10SM CLR 19/14 A2986 RMK AO2 SLP110 T01890139
KLAX 090453Z 26007KT 10SM CLR 18/14 A2987 RMK AO2 SLP113 T01830144
KLAX 090553Z COR 25005KT 10SM FEW008 18/14 A2988 RMK AO2 SLP116 T01780144 10222 20178 53009
KLAX 090653Z 26005KT 10SM FEW006 18/14 A2989 RMK AO2 SLP118 T01780144
KLAX 090753Z 27005KT 10SM FEW006 FEW010 18/15 A2989 RMK AO2 SLP118 T01780150 402440167
KLAX 090853Z COR 25004KT 10SM FEW007 BKN011FEW012 18/14 A2989 RMK AO2 SLP119 T01780144 51003
KLAX 090953Z 00000KT 10SM FEW007 BKN011 18/15 A2989 RMK AO2 SLP117 T01830150
KLAX 091053Z VRB03KT 10SM FEW007 OVC012 18/14 A2988 RMK AO2 SLP117 T01780144



Page loaded:  11:24 UTC  |   04:24 AM Pacific  |   05:24 AM Mountain  |   06:24 AM Central  |   07:24 AM Eastern

 

ADVISORIES

FORECASTS

FORECASTS

OBSERVATIONS

USER TOOLS

ABOUT US